sensor_id;sensor_type;location;lat;lon;timestamp;pressure;altitude;pressure_sealevel;temperature;humidity
52291;BME280;39663;45.432;28.050;2023-02-12T00:00:13;102146.86;;;10.82;45.37
52291;BME280;39663;45.432;28.050;2023-02-12T00:00:45;102146.88;;;10.77;45.31
52291;BME280;39663;45.432;28.050;2023-02-12T00:01:17;102143.82;;;10.78;45.96
52291;BME280;39663;45.432;28.050;2023-02-12T00:01:49;102142.24;;;10.80;45.75
52291;BME280;39663;45.432;28.050;2023-02-12T00:02:21;102145.33;;;10.78;45.52
52291;BME280;39663;45.432;28.050;2023-02-12T00:02:52;102144.30;;;10.94;45.26
52291;BME280;39663;45.432;28.050;2023-02-12T00:03:24;102141.67;;;10.95;45.74
52291;BME280;39663;45.432;28.050;2023-02-12T00:03:55;102139.48;;;11.07;45.75
52291;BME280;39663;45.432;28.050;2023-02-12T00:04:27;102142.65;;;10.90;45.49
52291;BME280;39663;45.432;28.050;2023-02-12T00:04:58;102144.74;;;10.87;45.07
52291;BME280;39663;45.432;28.050;2023-02-12T00:05:30;102145.95;;;11.08;45.43
52291;BME280;39663;45.432;28.050;2023-02-12T00:06:02;102145.58;;;10.88;45.49
52291;BME280;39663;45.432;28.050;2023-02-12T00:06:34;102147.08;;;11.03;45.22
52291;BME280;39663;45.432;28.050;2023-02-12T00:07:06;102148.20;;;11.01;45.13
52291;BME280;39663;45.432;28.050;2023-02-12T00:07:37;102146.90;;;10.65;45.62
52291;BME280;39663;45.432;28.050;2023-02-12T00:08:09;102145.41;;;10.61;45.69
52291;BME280;39663;45.432;28.050;2023-02-12T00:08:41;102145.02;;;11.00;45.45
52291;BME280;39663;45.432;28.050;2023-02-12T00:09:13;102142.22;;;11.12;45.46
52291;BME280;39663;45.432;28.050;2023-02-12T00:09:44;102141.81;;;10.81;45.52
52291;BME280;39663;45.432;28.050;2023-02-12T00:10:16;102143.55;;;10.57;45.42
52291;BME280;39663;45.432;28.050;2023-02-12T00:10:47;102144.33;;;11.01;45.46
52291;BME280;39663;45.432;28.050;2023-02-12T00:11:21;102147.55;;;10.58;45.23
52291;BME280;39663;45.432;28.050;2023-02-12T00:11:53;102152.85;;;10.58;45.23
52291;BME280;39663;45.432;28.050;2023-02-12T00:12:24;102155.00;;;11.02;45.17
52291;BME280;39663;45.432;28.050;2023-02-12T00:12:56;102152.32;;;10.57;45.52
52291;BME280;39663;45.432;28.050;2023-02-12T00:13:30;102151.96;;;10.61;45.61
52291;BME280;39663;45.432;28.050;2023-02-12T00:14:02;102152.75;;;10.61;45.43
52291;BME280;39663;45.432;28.050;2023-02-12T00:14:33;102154.03;;;10.57;45.17
52291;BME280;39663;45.432;28.050;2023-02-12T00:15:07;102153.76;;;10.57;45.38
52291;BME280;39663;45.432;28.050;2023-02-12T00:15:39;102154.44;;;10.63;45.39
52291;BME280;39663;45.432;28.050;2023-02-12T00:16:13;102152.20;;;10.61;45.53
52291;BME280;39663;45.432;28.050;2023-02-12T00:16:45;102150.58;;;10.57;45.57
52291;BME280;39663;45.432;28.050;2023-02-12T00:17:16;102152.22;;;10.57;45.41
52291;BME280;39663;45.432;28.050;2023-02-12T00:17:48;102152.67;;;10.59;45.15
52291;BME280;39663;45.432;28.050;2023-02-12T00:18:20;102151.87;;;10.54;45.24
52291;BME280;39663;45.432;28.050;2023-02-12T00:18:52;102152.49;;;10.81;45.15
52291;BME280;39663;45.432;28.050;2023-02-12T00:19:24;102153.01;;;10.61;45.67
52291;BME280;39663;45.432;28.050;2023-02-12T00:19:55;102154.01;;;10.77;45.62
52291;BME280;39663;45.432;28.050;2023-02-12T00:20:27;102156.24;;;10.66;45.83
52291;BME280;39663;45.432;28.050;2023-02-12T00:20:59;102156.36;;;10.61;45.35
52291;BME280;39663;45.432;28.050;2023-02-12T00:21:31;102156.18;;;10.55;45.40
52291;BME280;39663;45.432;28.050;2023-02-12T00:22:02;102157.70;;;10.52;45.53
52291;BME280;39663;45.432;28.050;2023-02-12T00:22:34;102158.15;;;10.59;45.51
52291;BME280;39663;45.432;28.050;2023-02-12T00:23:05;102156.17;;;10.52;45.62
52291;BME280;39663;45.432;28.050;2023-02-12T00:23:38;102155.34;;;10.59;45.35
52291;BME280;39663;45.432;28.050;2023-02-12T00:24:10;102158.51;;;10.74;45.65
52291;BME280;39663;45.432;28.050;2023-02-12T00:24:41;102157.37;;;10.55;45.31
52291;BME280;39663;45.432;28.050;2023-02-12T00:25:13;102157.95;;;10.52;45.37
52291;BME280;39663;45.432;28.050;2023-02-12T00:25:44;102156.32;;;10.51;45.40
52291;BME280;39663;45.432;28.050;2023-02-12T00:26:18;102158.42;;;10.59;45.60
52291;BME280;39663;45.432;28.050;2023-02-12T00:26:50;102157.44;;;10.53;45.39
52291;BME280;39663;45.432;28.050;2023-02-12T00:27:21;102159.12;;;10.73;45.15
52291;BME280;39663;45.432;28.050;2023-02-12T00:27:53;102158.87;;;10.91;45.05
52291;BME280;39663;45.432;28.050;2023-02-12T00:28:25;102157.71;;;10.63;45.18
52291;BME280;39663;45.432;28.050;2023-02-12T00:28:56;102159.53;;;10.52;45.23
52291;BME280;39663;45.432;28.050;2023-02-12T00:29:28;102158.49;;;10.67;45.42
52291;BME280;39663;45.432;28.050;2023-02-12T00:30:00;102157.43;;;10.87;45.31
52291;BME280;39663;45.432;28.050;2023-02-12T00:30:31;102158.28;;;10.57;45.34
52291;BME280;39663;45.432;28.050;2023-02-12T00:31:05;102156.98;;;10.84;45.32
52291;BME280;39663;45.432;28.050;2023-02-12T00:31:37;102157.67;;;10.50;45.16
52291;BME280;39663;45.432;28.050;2023-02-12T00:32:08;102157.55;;;10.47;45.24
52291;BME280;39663;45.432;28.050;2023-02-12T00:32:40;102158.35;;;10.68;45.60
52291;BME280;39663;45.432;28.050;2023-02-12T00:33:11;102155.99;;;10.57;45.57
52291;BME280;39663;45.432;28.050;2023-02-12T00:33:43;102157.44;;;10.48;45.50
52291;BME280;39663;45.432;28.050;2023-02-12T00:34:15;102160.10;;;10.87;45.39
52291;BME280;39663;45.432;28.050;2023-02-12T00:34:46;102158.39;;;10.89;45.53
52291;BME280;39663;45.432;28.050;2023-02-12T00:35:18;102159.47;;;10.63;45.66
52291;BME280;39663;45.432;28.050;2023-02-12T00:35:55;102159.43;;;10.57;45.88
52291;BME280;39663;45.432;28.050;2023-02-12T00:36:29;102157.96;;;10.66;45.32
52291;BME280;39663;45.432;28.050;2023-02-12T00:37:01;102159.03;;;10.44;45.58
52291;BME280;39663;45.432;28.050;2023-02-12T00:37:33;102161.43;;;10.82;45.20
52291;BME280;39663;45.432;28.050;2023-02-12T00:38:04;102162.00;;;10.47;45.33
52291;BME280;39663;45.432;28.050;2023-02-12T00:38:36;102161.39;;;10.80;45.21
52291;BME280;39663;45.432;28.050;2023-02-12T00:39:08;102162.21;;;10.71;44.94
52291;BME280;39663;45.432;28.050;2023-02-12T00:39:41;102162.09;;;10.83;45.15
52291;BME280;39663;45.432;28.050;2023-02-12T00:40:13;102161.66;;;10.41;45.17
52291;BME280;39663;45.432;28.050;2023-02-12T00:40:45;102161.21;;;10.91;45.86
52291;BME280;39663;45.432;28.050;2023-02-12T00:41:16;102160.89;;;10.70;45.82
52291;BME280;39663;45.432;28.050;2023-02-12T00:41:48;102157.56;;;10.90;45.84
52291;BME280;39663;45.432;28.050;2023-02-12T00:42:19;102158.49;;;10.69;45.53
52291;BME280;39663;45.432;28.050;2023-02-12T00:42:51;102157.79;;;10.63;45.48
52291;BME280;39663;45.432;28.050;2023-02-12T00:43:22;102157.63;;;10.69;46.06
52291;BME280;39663;45.432;28.050;2023-02-12T00:43:54;102157.55;;;10.60;45.77
52291;BME280;39663;45.432;28.050;2023-02-12T00:44:31;102158.24;;;10.80;45.54
52291;BME280;39663;45.432;28.050;2023-02-12T00:45:03;102158.06;;;10.81;45.66
52291;BME280;39663;45.432;28.050;2023-02-12T00:45:34;102158.28;;;10.58;45.54
52291;BME280;39663;45.432;28.050;2023-02-12T00:46:06;102156.55;;;10.66;45.89
52291;BME280;39663;45.432;28.050;2023-02-12T00:46:38;102153.90;;;10.89;45.63
52291;BME280;39663;45.432;28.050;2023-02-12T00:47:09;102155.17;;;10.63;45.75
52291;BME280;39663;45.432;28.050;2023-02-12T00:47:41;102152.82;;;10.42;45.61
52291;BME280;39663;45.432;28.050;2023-02-12T00:48:12;102152.25;;;10.74;45.84
52291;BME280;39663;45.432;28.050;2023-02-12T00:48:45;102151.67;;;10.69;45.24
52291;BME280;39663;45.432;28.050;2023-02-12T00:49:16;102149.42;;;10.86;45.26
52291;BME280;39663;45.432;28.050;2023-02-12T00:49:48;102150.84;;;10.40;45.61
52291;BME280;39663;45.432;28.050;2023-02-12T00:50:19;102149.13;;;10.45;45.55
52291;BME280;39663;45.432;28.050;2023-02-12T00:50:51;102145.07;;;10.64;45.76
52291;BME280;39663;45.432;28.050;2023-02-12T00:51:22;102148.98;;;10.49;45.43
52291;BME280;39663;45.432;28.050;2023-02-12T00:51:54;102148.12;;;10.41;45.62
52291;BME280;39663;45.432;28.050;2023-02-12T00:52:26;102144.35;;;10.45;45.48
52291;BME280;39663;45.432;28.050;2023-02-12T00:52:57;102146.68;;;10.58;45.71
52291;BME280;39663;45.432;28.050;2023-02-12T00:53:29;102146.97;;;10.69;46.02
52291;BME280;39663;45.432;28.050;2023-02-12T00:54:01;102148.10;;;10.80;45.17
52291;BME280;39663;45.432;28.050;2023-02-12T00:54:33;102146.89;;;10.61;45.63
52291;BME280;39663;45.432;28.050;2023-02-12T00:55:05;102144.94;;;10.79;45.55
52291;BME280;39663;45.432;28.050;2023-02-12T00:55:37;102145.31;;;10.53;45.21
52291;BME280;39663;45.432;28.050;2023-02-12T00:56:08;102145.29;;;10.38;45.37
52291;BME280;39663;45.432;28.050;2023-02-12T00:56:40;102144.56;;;10.77;45.58
52291;BME280;39663;45.432;28.050;2023-02-12T00:57:12;102146.26;;;10.47;45.53
52291;BME280;39663;45.432;28.050;2023-02-12T00:57:43;102146.70;;;10.65;44.90
52291;BME280;39663;45.432;28.050;2023-02-12T00:58:15;102148.39;;;10.45;45.10
52291;BME280;39663;45.432;28.050;2023-02-12T00:58:46;102148.01;;;10.75;45.81
52291;BME280;39663;45.432;28.050;2023-02-12T01:08:07;102138.30;;;10.55;46.82
52291;BME280;39663;45.432;28.050;2023-02-12T01:08:41;102136.87;;;10.58;47.03
52291;BME280;39663;45.432;28.050;2023-02-12T01:09:13;102141.39;;;10.61;46.87
52291;BME280;39663;45.432;28.050;2023-02-12T01:09:44;102141.58;;;10.43;46.91
52291;BME280;39663;45.432;28.050;2023-02-12T01:10:17;102136.55;;;10.62;46.91
52291;BME280;39663;45.432;28.050;2023-02-12T01:10:54;102136.56;;;10.65;47.02
52291;BME280;39663;45.432;28.050;2023-02-12T01:11:26;102134.66;;;10.62;46.61
52291;BME280;39663;45.432;28.050;2023-02-12T01:11:57;102136.95;;;10.65;46.38
52291;BME280;39663;45.432;28.050;2023-02-12T01:12:29;102138.48;;;10.59;45.60
52291;BME280;39663;45.432;28.050;2023-02-12T01:13:00;102137.46;;;10.57;46.22
52291;BME280;39663;45.432;28.050;2023-02-12T01:13:33;102139.20;;;10.60;46.10
52291;BME280;39663;45.432;28.050;2023-02-12T01:14:05;102141.68;;;10.62;46.51
52291;BME280;39663;45.432;28.050;2023-02-12T01:14:37;102139.44;;;10.58;46.68
52291;BME280;39663;45.432;28.050;2023-02-12T01:15:09;102142.06;;;10.21;46.04
52291;BME280;39663;45.432;28.050;2023-02-12T01:15:41;102138.87;;;10.47;46.69
52291;BME280;39663;45.432;28.050;2023-02-12T01:16:15;102138.47;;;10.61;46.83
52291;BME280;39663;45.432;28.050;2023-02-12T01:16:46;102138.29;;;10.69;46.90
52291;BME280;39663;45.432;28.050;2023-02-12T01:17:18;102140.56;;;10.66;47.05
52291;BME280;39663;45.432;28.050;2023-02-12T01:17:51;102142.89;;;10.67;46.14
52291;BME280;39663;45.432;28.050;2023-02-12T01:18:23;102145.26;;;10.59;45.88
52291;BME280;39663;45.432;28.050;2023-02-12T01:18:54;102145.65;;;10.66;45.70
52291;BME280;39663;45.432;28.050;2023-02-12T01:19:26;102142.23;;;10.63;46.47
52291;BME280;39663;45.432;28.050;2023-02-12T01:19:58;102136.43;;;10.48;46.69
52291;BME280;39663;45.432;28.050;2023-02-12T01:20:29;102137.61;;;10.60;46.87
52291;BME280;39663;45.432;28.050;2023-02-12T01:21:01;102139.14;;;10.47;46.76
52291;BME280;39663;45.432;28.050;2023-02-12T01:21:33;102139.31;;;10.68;46.76
52291;BME280;39663;45.432;28.050;2023-02-12T01:22:05;102136.50;;;10.67;46.41
52291;BME280;39663;45.432;28.050;2023-02-12T01:22:37;102137.00;;;10.64;46.26
52291;BME280;39663;45.432;28.050;2023-02-12T01:23:09;102137.79;;;10.37;46.08
52291;BME280;39663;45.432;28.050;2023-02-12T01:23:41;102139.43;;;10.61;45.91
52291;BME280;39663;45.432;28.050;2023-02-12T01:24:12;102140.84;;;10.46;45.75
52291;BME280;39663;45.432;28.050;2023-02-12T01:24:44;102134.92;;;10.44;46.30
52291;BME280;39663;45.432;28.050;2023-02-12T01:25:16;102133.42;;;10.64;46.20
52291;BME280;39663;45.432;28.050;2023-02-12T01:25:48;102130.86;;;10.62;46.29
52291;BME280;39663;45.432;28.050;2023-02-12T01:26:20;102130.26;;;10.45;46.65
52291;BME280;39663;45.432;28.050;2023-02-12T01:26:52;102129.16;;;10.69;46.69
52291;BME280;39663;45.432;28.050;2023-02-12T01:27:23;102128.10;;;10.69;46.82
52291;BME280;39663;45.432;28.050;2023-02-12T01:27:55;102131.90;;;10.68;46.30
52291;BME280;39663;45.432;28.050;2023-02-12T01:28:26;102133.61;;;10.79;46.28
52291;BME280;39663;45.432;28.050;2023-02-12T01:29:02;102131.52;;;10.55;45.63
52291;BME280;39663;45.432;28.050;2023-02-12T01:29:34;102129.33;;;10.47;46.48
52291;BME280;39663;45.432;28.050;2023-02-12T01:30:09;102132.47;;;10.28;45.76
52291;BME280;39663;45.432;28.050;2023-02-12T01:30:41;102131.49;;;10.44;46.55
52291;BME280;39663;45.432;28.050;2023-02-12T01:31:16;102129.77;;;10.37;46.39
52291;BME280;39663;45.432;28.050;2023-02-12T01:31:48;102130.78;;;10.61;46.24
52291;BME280;39663;45.432;28.050;2023-02-12T01:32:19;102131.23;;;10.39;46.06
52291;BME280;39663;45.432;28.050;2023-02-12T01:32:51;102128.98;;;10.41;46.26
52291;BME280;39663;45.432;28.050;2023-02-12T01:33:22;102131.35;;;10.37;46.33
52291;BME280;39663;45.432;28.050;2023-02-12T01:33:55;102129.87;;;10.61;45.88
52291;BME280;39663;45.432;28.050;2023-02-12T01:34:27;102134.01;;;10.58;45.80
52291;BME280;39663;45.432;28.050;2023-02-12T01:34:58;102132.84;;;10.56;45.68
52291;BME280;39663;45.432;28.050;2023-02-12T01:35:30;102132.36;;;10.18;46.05
52291;BME280;39663;45.432;28.050;2023-02-12T01:36:02;102133.32;;;10.33;45.87
52291;BME280;39663;45.432;28.050;2023-02-12T01:36:33;102134.02;;;10.36;46.21
52291;BME280;39663;45.432;28.050;2023-02-12T01:37:05;102133.85;;;10.37;46.21
52291;BME280;39663;45.432;28.050;2023-02-12T01:37:37;102134.47;;;10.31;46.05
52291;BME280;39663;45.432;28.050;2023-02-12T01:38:09;102133.62;;;10.52;45.94
52291;BME280;39663;45.432;28.050;2023-02-12T01:38:40;102132.94;;;10.36;45.96
52291;BME280;39663;45.432;28.050;2023-02-12T01:39:12;102135.60;;;10.52;46.52
52291;BME280;39663;45.432;28.050;2023-02-12T01:39:43;102135.44;;;10.39;46.74
52291;BME280;39663;45.432;28.050;2023-02-12T01:40:17;102133.77;;;10.40;46.77
52291;BME280;39663;45.432;28.050;2023-02-12T01:40:48;102135.85;;;10.50;46.12
52291;BME280;39663;45.432;28.050;2023-02-12T01:41:22;102133.90;;;10.38;46.34
52291;BME280;39663;45.432;28.050;2023-02-12T01:41:54;102132.78;;;10.37;46.36
52291;BME280;39663;45.432;28.050;2023-02-12T01:42:26;102132.33;;;10.54;45.98
52291;BME280;39663;45.432;28.050;2023-02-12T01:43:00;102133.71;;;10.54;45.69
52291;BME280;39663;45.432;28.050;2023-02-12T01:43:33;102132.79;;;10.45;45.95
52291;BME280;39663;45.432;28.050;2023-02-12T01:44:07;102134.18;;;10.26;45.76
52291;BME280;39663;45.432;28.050;2023-02-12T01:44:43;102133.69;;;10.40;46.43
52291;BME280;39663;45.432;28.050;2023-02-12T01:45:44;102134.02;;;10.26;46.14
52291;BME280;39663;45.432;28.050;2023-02-12T01:46:16;102133.80;;;10.48;46.04
52291;BME280;39663;45.432;28.050;2023-02-12T01:46:49;102132.98;;;10.44;46.04
52291;BME280;39663;45.432;28.050;2023-02-12T01:47:20;102134.65;;;10.44;45.88
52291;BME280;39663;45.432;28.050;2023-02-12T01:47:52;102135.01;;;10.08;46.09
52291;BME280;39663;45.432;28.050;2023-02-12T01:48:27;102134.75;;;10.39;45.66
52291;BME280;39663;45.432;28.050;2023-02-12T01:48:59;102136.69;;;10.17;45.49
52291;BME280;39663;45.432;28.050;2023-02-12T01:49:36;102137.89;;;10.18;45.39
52291;BME280;39663;45.432;28.050;2023-02-12T01:50:12;102138.34;;;10.25;45.41
52291;BME280;39663;45.432;28.050;2023-02-12T01:50:45;102138.63;;;10.42;46.22
52291;BME280;39663;45.432;28.050;2023-02-12T01:51:20;102140.00;;;10.47;46.35
52291;BME280;39663;45.432;28.050;2023-02-12T01:51:56;102137.05;;;10.26;46.05
52291;BME280;39663;45.432;28.050;2023-02-12T01:52:31;102136.68;;;10.46;45.97
52291;BME280;39663;45.432;28.050;2023-02-12T01:53:04;102134.25;;;10.49;46.04
52291;BME280;39663;45.432;28.050;2023-02-12T01:53:39;102132.34;;;10.46;46.40
52291;BME280;39663;45.432;28.050;2023-02-12T01:54:14;102134.78;;;10.48;45.57
52291;BME280;39663;45.432;28.050;2023-02-12T01:54:48;102138.80;;;10.44;45.15
52291;BME280;39663;45.432;28.050;2023-02-12T01:55:21;102138.78;;;10.43;45.57
52291;BME280;39663;45.432;28.050;2023-02-12T01:55:55;102136.32;;;10.43;45.98
52291;BME280;39663;45.432;28.050;2023-02-12T01:56:28;102136.75;;;10.44;45.32
52291;BME280;39663;45.432;28.050;2023-02-12T01:57:00;102138.44;;;10.40;45.34
52291;BME280;39663;45.432;28.050;2023-02-12T01:57:34;102139.13;;;10.24;45.91
52291;BME280;39663;45.432;28.050;2023-02-12T01:58:08;102134.47;;;10.26;46.44
52291;BME280;39663;45.432;28.050;2023-02-12T01:58:41;102133.32;;;10.48;46.59
52291;BME280;39663;45.432;28.050;2023-02-12T01:59:13;102133.13;;;10.49;46.68
52291;BME280;39663;45.432;28.050;2023-02-12T01:59:48;102133.83;;;10.33;46.47
52291;BME280;39663;45.432;28.050;2023-02-12T02:00:24;102138.86;;;10.45;45.82
52291;BME280;39663;45.432;28.050;2023-02-12T02:01:06;102137.95;;;10.21;45.54
52291;BME280;39663;45.432;28.050;2023-02-12T02:01:38;102141.83;;;10.36;45.59
52291;BME280;39663;45.432;28.050;2023-02-12T02:02:10;102141.71;;;10.55;46.29
52291;BME280;39663;45.432;28.050;2023-02-12T02:02:42;102142.26;;;9.98;46.65
52291;BME280;39663;45.432;28.050;2023-02-12T02:03:16;102142.25;;;10.40;45.90
52291;BME280;39663;45.432;28.050;2023-02-12T02:03:50;102143.68;;;10.25;46.36
52291;BME280;39663;45.432;28.050;2023-02-12T02:04:26;102146.63;;;10.29;46.32
52291;BME280;39663;45.432;28.050;2023-02-12T02:05:01;102144.04;;;10.52;46.55
52291;BME280;39663;45.432;28.050;2023-02-12T02:05:41;102145.35;;;10.50;45.80
52291;BME280;39663;45.432;28.050;2023-02-12T02:06:15;102146.34;;;10.52;46.14
52291;BME280;39663;45.432;28.050;2023-02-12T02:06:51;102142.51;;;10.44;46.10
52291;BME280;39663;45.432;28.050;2023-02-12T02:07:24;102143.43;;;10.44;46.36
52291;BME280;39663;45.432;28.050;2023-02-12T02:07:55;102139.32;;;10.39;46.21
52291;BME280;39663;45.432;28.050;2023-02-12T02:08:27;102140.36;;;10.45;46.34
52291;BME280;39663;45.432;28.050;2023-02-12T02:09:00;102140.02;;;10.37;45.55
52291;BME280;39663;45.432;28.050;2023-02-12T02:09:35;102143.00;;;10.13;45.51
52291;BME280;39663;45.432;28.050;2023-02-12T02:10:09;102145.73;;;10.32;45.56
52291;BME280;39663;45.432;28.050;2023-02-12T02:10:41;102143.71;;;10.15;45.53
52291;BME280;39663;45.432;28.050;2023-02-12T02:11:12;102139.70;;;10.30;45.89
52291;BME280;39663;45.432;28.050;2023-02-12T02:11:44;102142.41;;;10.26;45.72
52291;BME280;39663;45.432;28.050;2023-02-12T02:12:16;102143.59;;;10.12;46.23
52291;BME280;39663;45.432;28.050;2023-02-12T02:12:48;102144.22;;;10.28;45.87
52291;BME280;39663;45.432;28.050;2023-02-12T02:13:19;102146.11;;;10.09;46.51
52291;BME280;39663;45.432;28.050;2023-02-12T02:13:51;102145.78;;;10.39;46.66
52291;BME280;39663;45.432;28.050;2023-02-12T02:14:23;102147.03;;;10.35;46.53
52291;BME280;39663;45.432;28.050;2023-02-12T02:14:58;102150.45;;;10.32;45.96
52291;BME280;39663;45.432;28.050;2023-02-12T02:15:30;102149.23;;;10.02;45.59
52291;BME280;39663;45.432;28.050;2023-02-12T02:16:08;102148.38;;;10.31;45.19
52291;BME280;39663;45.432;28.050;2023-02-12T02:16:44;102150.87;;;10.23;45.13
52291;BME280;39663;45.432;28.050;2023-02-12T02:17:35;102147.52;;;10.20;46.27
52291;BME280;39663;45.432;28.050;2023-02-12T02:18:11;102147.94;;;10.24;45.88
52291;BME280;39663;45.432;28.050;2023-02-12T02:18:54;102149.23;;;10.23;45.70
52291;BME280;39663;45.432;28.050;2023-02-12T02:19:37;102146.52;;;10.21;45.43
52291;BME280;39663;45.432;28.050;2023-02-12T02:20:38;102147.31;;;10.07;45.63
52291;BME280;39663;45.432;28.050;2023-02-12T02:21:45;102147.54;;;10.19;45.97
52291;BME280;39663;45.432;28.050;2023-02-12T02:22:28;102146.18;;;10.24;45.84
52291;BME280;39663;45.432;28.050;2023-02-12T02:23:16;102148.47;;;10.30;45.89
52291;BME280;39663;45.432;28.050;2023-02-12T02:24:16;102144.63;;;10.29;46.12
52291;BME280;39663;45.432;28.050;2023-02-12T02:26:12;102145.56;;;9.84;46.53
52291;BME280;39663;45.432;28.050;2023-02-12T02:26:59;102150.76;;;10.28;45.76
52291;BME280;39663;45.432;28.050;2023-02-12T02:27:41;102154.62;;;10.17;45.98
52291;BME280;39663;45.432;28.050;2023-02-12T02:28:32;102157.87;;;10.24;45.95
52291;BME280;39663;45.432;28.050;2023-02-12T02:29:21;102158.28;;;10.22;45.97
52291;BME280;39663;45.432;28.050;2023-02-12T02:30:25;102160.10;;;10.01;45.85
52291;BME280;39663;45.432;28.050;2023-02-12T02:31:05;102156.03;;;10.19;45.94
52291;BME280;39663;45.432;28.050;2023-02-12T02:31:42;102156.16;;;10.25;45.82
52291;BME280;39663;45.432;28.050;2023-02-12T02:32:18;102155.41;;;10.03;46.04
52291;BME280;39663;45.432;28.050;2023-02-12T02:32:59;102156.22;;;10.24;45.85
52291;BME280;39663;45.432;28.050;2023-02-12T02:33:40;102154.25;;;10.23;46.04
52291;BME280;39663;45.432;28.050;2023-02-12T02:34:22;102155.38;;;10.02;45.81
52291;BME280;39663;45.432;28.050;2023-02-12T02:34:57;102155.64;;;10.11;45.89
52291;BME280;39663;45.432;28.050;2023-02-12T02:35:37;102155.01;;;9.82;45.72
52291;BME280;39663;45.432;28.050;2023-02-12T02:36:18;102154.24;;;10.18;45.95
52291;BME280;39663;45.432;28.050;2023-02-12T02:36:57;102155.45;;;10.18;45.59
52291;BME280;39663;45.432;28.050;2023-02-12T02:37:38;102153.81;;;10.19;45.76
52291;BME280;39663;45.432;28.050;2023-02-12T02:38:19;102152.99;;;10.07;45.84
52291;BME280;39663;45.432;28.050;2023-02-12T02:38:54;102153.13;;;10.14;45.88
52291;BME280;39663;45.432;28.050;2023-02-12T02:39:36;102149.55;;;9.96;46.13
52291;BME280;39663;45.432;28.050;2023-02-12T02:40:12;102150.38;;;10.19;45.97
52291;BME280;39663;45.432;28.050;2023-02-12T02:40:50;102149.23;;;10.18;45.82
52291;BME280;39663;45.432;28.050;2023-02-12T02:41:29;102150.20;;;10.23;46.07
52291;BME280;39663;45.432;28.050;2023-02-12T02:42:10;102152.28;;;10.08;46.03
52291;BME280;39663;45.432;28.050;2023-02-12T02:42:50;102152.12;;;10.27;45.74
52291;BME280;39663;45.432;28.050;2023-02-12T02:43:28;102151.98;;;10.16;45.81
52291;BME280;39663;45.432;28.050;2023-02-12T02:44:09;102150.28;;;10.21;45.95
52291;BME280;39663;45.432;28.050;2023-02-12T02:44:47;102150.24;;;10.12;45.92
52291;BME280;39663;45.432;28.050;2023-02-12T02:45:26;102150.04;;;10.19;45.73
52291;BME280;39663;45.432;28.050;2023-02-12T02:46:05;102150.52;;;10.20;45.42
52291;BME280;39663;45.432;28.050;2023-02-12T02:46:41;102150.37;;;10.15;45.54
52291;BME280;39663;45.432;28.050;2023-02-12T02:47:17;102151.57;;;10.15;45.73
52291;BME280;39663;45.432;28.050;2023-02-12T02:47:53;102152.08;;;9.72;45.61
52291;BME280;39663;45.432;28.050;2023-02-12T02:48:31;102152.86;;;10.15;45.78
52291;BME280;39663;45.432;28.050;2023-02-12T02:49:06;102152.67;;;9.89;45.45
52291;BME280;39663;45.432;28.050;2023-02-12T02:49:41;102151.76;;;10.11;45.71
52291;BME280;39663;45.432;28.050;2023-02-12T02:50:17;102153.48;;;10.09;45.79
52291;BME280;39663;45.432;28.050;2023-02-12T02:50:55;102151.54;;;10.04;45.69
52291;BME280;39663;45.432;28.050;2023-02-12T02:51:31;102151.42;;;10.08;45.40
52291;BME280;39663;45.432;28.050;2023-02-12T02:52:06;102153.13;;;10.03;45.52
52291;BME280;39663;45.432;28.050;2023-02-12T02:52:42;102150.67;;;9.87;45.22
52291;BME280;39663;45.432;28.050;2023-02-12T02:53:21;102147.62;;;9.99;45.31
52291;BME280;39663;45.432;28.050;2023-02-12T02:53:59;102145.41;;;9.84;45.55
52291;BME280;39663;45.432;28.050;2023-02-12T02:54:36;102146.40;;;10.01;45.85
52291;BME280;39663;45.432;28.050;2023-02-12T02:55:13;102145.39;;;9.85;45.64
52291;BME280;39663;45.432;28.050;2023-02-12T02:55:50;102145.93;;;10.02;46.22
52291;BME280;39663;45.432;28.050;2023-02-12T02:56:23;102145.43;;;10.06;46.05
52291;BME280;39663;45.432;28.050;2023-02-12T02:57:06;102146.25;;;10.07;46.12
52291;BME280;39663;45.432;28.050;2023-02-12T02:57:41;102143.98;;;10.07;45.78
52291;BME280;39663;45.432;28.050;2023-02-12T02:58:19;102144.80;;;10.01;45.28
52291;BME280;39663;45.432;28.050;2023-02-12T02:58:55;102143.94;;;10.05;45.38
52291;BME280;39663;45.432;28.050;2023-02-12T02:59:33;102145.09;;;10.00;45.46
52291;BME280;39663;45.432;28.050;2023-02-12T03:00:12;102143.34;;;10.03;45.49
52291;BME280;39663;45.432;28.050;2023-02-12T03:00:49;102140.35;;;10.03;46.10
52291;BME280;39663;45.432;28.050;2023-02-12T03:01:28;102139.90;;;10.10;45.62
52291;BME280;39663;45.432;28.050;2023-02-12T03:02:05;102140.57;;;9.99;45.43
52291;BME280;39663;45.432;28.050;2023-02-12T03:02:41;102140.51;;;10.00;45.27
52291;BME280;39663;45.432;28.050;2023-02-12T03:03:19;102138.26;;;9.98;45.19
52291;BME280;39663;45.432;28.050;2023-02-12T03:03:57;102140.55;;;9.94;45.38
52291;BME280;39663;45.432;28.050;2023-02-12T03:04:34;102140.06;;;9.74;45.16
52291;BME280;39663;45.432;28.050;2023-02-12T03:05:09;102137.32;;;9.92;45.29
52291;BME280;39663;45.432;28.050;2023-02-12T03:05:47;102138.46;;;9.89;45.34
52291;BME280;39663;45.432;28.050;2023-02-12T03:06:24;102137.73;;;9.92;45.34
52291;BME280;39663;45.432;28.050;2023-02-12T03:07:01;102136.41;;;9.90;46.01
52291;BME280;39663;45.432;28.050;2023-02-12T03:07:39;102134.00;;;10.10;46.33